createdAt,value
2023-05-03T00:00:47.562Z,22.58
2023-05-03T00:03:14.329Z,18.38
2023-05-03T00:05:41.244Z,17.58
2023-05-03T00:08:07.869Z,18.30
2023-05-03T00:10:34.332Z,19.05
2023-05-03T00:13:00.769Z,19.42
2023-05-03T00:15:27.289Z,18.33
2023-05-03T00:17:53.907Z,19.20
2023-05-03T00:20:20.689Z,20.73
2023-05-03T00:22:47.276Z,19.10
2023-05-03T00:25:14.875Z,19.17
2023-05-03T00:27:41.299Z,18.67
2023-05-03T00:30:09.597Z,18.05
2023-05-03T00:32:36.626Z,17.77
2023-05-03T00:35:03.432Z,21.02
2023-05-03T00:37:30.920Z,18.63
2023-05-03T00:39:57.320Z,18.40
2023-05-03T00:42:24.096Z,17.73
2023-05-03T00:44:50.484Z,19.02
2023-05-03T00:47:17.686Z,26.60
2023-05-03T00:49:45.167Z,27.40
2023-05-03T00:52:11.636Z,18.40
2023-05-03T00:54:38.181Z,19.27
2023-05-03T00:57:05.081Z,18.40
2023-05-03T00:59:32.639Z,20.83
2023-05-03T01:01:59.333Z,18.75
2023-05-03T01:04:26.119Z,18.38
2023-05-03T01:07:04.660Z,20.20
2023-05-03T01:09:52.240Z,23.45
2023-05-03T01:12:33.960Z,20.35
2023-05-03T01:15:24.318Z,18.85
2023-05-03T01:20:33.598Z,18.90
2023-05-03T01:22:59.997Z,17.83
2023-05-03T01:25:29.530Z,18.13
2023-05-03T01:27:55.935Z,19.25
2023-05-03T01:30:27.494Z,20.25
2023-05-03T01:33:10.300Z,20.42
2023-05-03T01:36:00.943Z,18.55
2023-05-03T01:38:33.182Z,20.05
2023-05-03T01:41:04.061Z,20.35
2023-05-03T01:43:33.782Z,18.88
2023-05-03T01:46:00.357Z,19.70
2023-05-03T01:48:26.830Z,19.35
2023-05-03T01:50:53.300Z,22.08
2023-05-03T01:53:20.116Z,20.60
2023-05-03T01:55:46.596Z,19.23
2023-05-03T01:58:13.016Z,19.63
2023-05-03T02:00:39.482Z,18.17
2023-05-03T02:03:06.118Z,18.38
2023-05-03T02:05:32.567Z,18.05
2023-05-03T02:07:59.007Z,28.23
2023-05-03T02:10:25.501Z,24.63
2023-05-03T02:12:51.971Z,22.90
2023-05-03T02:15:20.094Z,18.73
2023-05-03T02:17:49.600Z,21.13
2023-05-03T02:20:16.490Z,19.83
2023-05-03T02:22:43.077Z,18.80
2023-05-03T02:25:09.604Z,18.95
2023-05-03T02:27:36.150Z,18.38
2023-05-03T02:30:02.890Z,19.77
2023-05-03T02:32:29.450Z,20.13
2023-05-03T02:34:56.065Z,24.05
2023-05-03T02:37:22.518Z,17.42
2023-05-03T02:39:48.987Z,18.50
2023-05-03T02:42:16.134Z,18.00
2023-05-03T02:44:42.596Z,17.77
2023-05-03T02:47:09.464Z,17.90
2023-05-03T02:49:35.959Z,17.77
2023-05-03T02:52:02.444Z,17.85
2023-05-03T02:54:28.927Z,17.27
2023-05-03T02:56:55.601Z,21.83
2023-05-03T02:59:21.987Z,18.45
2023-05-03T03:01:49.298Z,19.35
2023-05-03T03:04:15.810Z,17.20
2023-05-03T03:06:42.264Z,17.63
2023-05-03T03:09:08.686Z,17.25
2023-05-03T03:11:35.261Z,16.80
2023-05-03T03:14:01.704Z,18.48
2023-05-03T03:16:28.474Z,21.35
2023-05-03T03:18:55.128Z,18.35
2023-05-03T03:21:21.662Z,17.15
2023-05-03T03:23:48.256Z,18.20
2023-05-03T03:26:14.707Z,15.60
2023-05-03T03:28:41.301Z,18.65
2023-05-03T03:31:07.916Z,15.15
2023-05-03T03:33:34.393Z,14.70
2023-05-03T03:36:00.980Z,18.60
2023-05-03T03:38:27.424Z,14.15
2023-05-03T03:40:54.410Z,14.20
2023-05-03T03:43:20.864Z,16.10
2023-05-03T03:45:47.276Z,16.83
2023-05-03T03:48:13.930Z,16.08
2023-05-03T03:50:40.497Z,17.40
2023-05-03T03:53:07.078Z,15.27
2023-05-03T03:55:33.508Z,18.67
2023-05-03T03:58:00.084Z,18.58
2023-05-03T04:00:26.672Z,17.38
2023-05-03T04:02:53.231Z,23.38
2023-05-03T04:05:19.847Z,15.57
2023-05-03T04:07:46.300Z,18.83
2023-05-03T04:10:12.737Z,18.20
2023-05-03T04:12:39.256Z,18.45
2023-05-03T04:15:06.541Z,22.13
2023-05-03T04:17:34.937Z,14.60
2023-05-03T04:20:07.351Z,20.33
2023-05-03T04:22:34.104Z,19.13
2023-05-03T04:25:03.578Z,16.80
2023-05-03T04:27:30.122Z,16.60
2023-05-03T04:29:57.140Z,21.85
2023-05-03T04:32:23.599Z,20.80
2023-05-03T04:34:54.465Z,20.48
2023-05-03T04:37:23.513Z,26.17
2023-05-03T04:39:49.978Z,18.42
2023-05-03T04:42:16.609Z,23.25
2023-05-03T04:44:43.050Z,17.05
2023-05-03T04:47:09.577Z,18.48
2023-05-03T04:49:36.212Z,16.20
2023-05-03T04:52:03.055Z,17.80
2023-05-03T04:54:29.545Z,20.98
2023-05-03T04:56:56.722Z,21.83
2023-05-03T04:59:23.189Z,15.55
2023-05-03T05:01:49.737Z,15.98
2023-05-03T05:04:16.787Z,15.63
2023-05-03T05:06:43.376Z,16.65
2023-05-03T05:09:23.219Z,16.60
2023-05-03T05:11:49.914Z,22.45
2023-05-03T05:14:16.491Z,16.05
2023-05-03T05:16:43.006Z,16.92
2023-05-03T05:19:09.537Z,16.85
2023-05-03T05:21:36.152Z,15.77
2023-05-03T05:24:02.640Z,16.83
2023-05-03T05:26:29.286Z,15.18
2023-05-03T05:28:56.050Z,15.68
2023-05-03T05:31:22.558Z,26.65
2023-05-03T05:33:49.026Z,18.23
2023-05-03T05:36:15.644Z,15.80
2023-05-03T05:38:42.240Z,17.35
2023-05-03T05:41:08.728Z,21.27
2023-05-03T05:43:35.251Z,18.40
2023-05-03T05:46:01.759Z,15.50
2023-05-03T05:48:28.232Z,17.02
2023-05-03T05:50:54.609Z,14.70
2023-05-03T05:53:20.989Z,13.13
2023-05-03T05:55:47.463Z,16.05
2023-05-03T05:58:13.941Z,14.23
2023-05-03T06:00:40.998Z,14.65
2023-05-03T06:03:07.552Z,13.70
2023-05-03T06:05:34.098Z,14.07
2023-05-03T06:08:00.578Z,14.77
2023-05-03T06:10:27.015Z,11.88
2023-05-03T06:12:53.454Z,12.32
2023-05-03T06:15:19.915Z,15.48
2023-05-03T06:17:46.867Z,12.50
2023-05-03T06:20:13.764Z,13.00
2023-05-03T06:22:40.388Z,15.70
2023-05-03T06:25:10.544Z,10.85
2023-05-03T06:27:38.363Z,11.75
2023-05-03T06:30:06.627Z,21.90
2023-05-03T06:32:33.199Z,13.15
2023-05-03T06:34:59.749Z,13.10
2023-05-03T06:37:26.488Z,11.55
2023-05-03T06:39:53.052Z,11.38
2023-05-03T06:42:19.573Z,17.58
2023-05-03T06:44:46.148Z,12.27
2023-05-03T06:47:12.571Z,10.68
2023-05-03T06:49:39.055Z,10.68
2023-05-03T06:52:05.688Z,12.48
2023-05-03T06:54:32.122Z,12.00
2023-05-03T06:56:58.750Z,10.10
2023-05-03T06:59:26.857Z,10.60
2023-05-03T07:01:53.548Z,10.40
2023-05-03T07:04:20.189Z,10.45
2023-05-03T07:06:56.107Z,13.68
2023-05-03T07:09:32.056Z,10.23
2023-05-03T07:12:08.456Z,11.15
2023-05-03T07:14:34.931Z,11.13
2023-05-03T07:17:01.314Z,10.95
2023-05-03T07:19:27.727Z,10.73
2023-05-03T07:21:54.168Z,10.35
2023-05-03T07:24:20.695Z,10.63
2023-05-03T07:26:48.545Z,10.95
2023-05-03T07:29:15.658Z,11.23
2023-05-03T07:31:42.245Z,13.68
2023-05-03T07:34:09.094Z,10.30
2023-05-03T07:36:35.591Z,10.52
2023-05-03T07:39:04.760Z,10.90
2023-05-03T07:41:31.756Z,10.80
2023-05-03T07:43:58.524Z,11.20
2023-05-03T07:46:25.128Z,10.90
2023-05-03T07:48:51.677Z,13.63
2023-05-03T07:51:18.141Z,13.73
2023-05-03T07:53:44.578Z,11.93
2023-05-03T07:56:11.284Z,11.23
2023-05-03T07:58:40.517Z,11.63
2023-05-03T08:01:07.748Z,11.50
2023-05-03T08:03:34.449Z,11.18
2023-05-03T08:06:01.613Z,11.35
2023-05-03T08:08:28.496Z,10.77
2023-05-03T08:10:54.972Z,11.00
2023-05-03T08:13:22.693Z,11.18
2023-05-03T08:15:50.743Z,11.50
2023-05-03T08:18:17.301Z,12.70
2023-05-03T08:20:45.201Z,12.35
2023-05-03T08:23:11.676Z,13.77
2023-05-03T08:25:38.086Z,11.70
2023-05-03T08:28:04.778Z,11.18
2023-05-03T08:30:31.513Z,11.30
2023-05-03T08:32:57.985Z,12.50
2023-05-03T08:35:25.323Z,11.40
2023-05-03T08:37:51.754Z,10.90
2023-05-03T08:40:22.235Z,11.35
2023-05-03T08:42:50.221Z,11.30
2023-05-03T08:45:17.204Z,11.48
2023-05-03T08:47:45.487Z,12.52
2023-05-03T08:50:13.873Z,12.30
2023-05-03T08:52:42.614Z,12.88
2023-05-03T08:55:10.540Z,12.65
2023-05-03T08:57:37.977Z,18.35
2023-05-03T09:00:12.606Z,15.60
2023-05-03T09:02:40.163Z,16.08
2023-05-03T09:05:15.839Z,16.35
2023-05-03T09:08:01.975Z,14.13
2023-05-03T09:10:28.473Z,14.75
2023-05-03T09:13:01.124Z,14.20
2023-05-03T09:15:30.952Z,14.65
2023-05-03T09:18:16.117Z,14.20
2023-05-03T09:20:51.089Z,14.95
2023-05-03T09:23:20.035Z,14.50
2023-05-03T09:25:51.512Z,13.60
2023-05-03T09:28:20.256Z,14.30
2023-05-03T09:30:48.208Z,14.07
2023-05-03T09:33:22.375Z,14.00
2023-05-03T09:36:03.574Z,14.65
2023-05-03T09:38:36.864Z,14.90
2023-05-03T09:41:05.960Z,16.27
2023-05-03T09:43:32.579Z,15.40
2023-05-03T09:46:13.442Z,16.30
2023-05-03T09:48:40.987Z,16.15
2023-05-03T09:51:08.502Z,17.25
2023-05-03T09:53:37.212Z,17.13
2023-05-03T09:56:06.281Z,15.73
2023-05-03T09:58:34.979Z,15.05
2023-05-03T10:01:02.115Z,14.43
2023-05-03T10:03:35.134Z,14.75
2023-05-03T10:06:05.339Z,14.80
2023-05-03T10:11:05.408Z,14.10
2023-05-03T10:13:32.005Z,16.20
2023-05-03T10:16:12.690Z,15.30
2023-05-03T10:18:51.195Z,15.48
2023-05-03T10:21:51.385Z,15.13
2023-05-03T10:24:17.877Z,15.82
2023-05-03T10:26:49.835Z,14.15
2023-05-03T10:29:49.018Z,13.73
2023-05-03T10:32:31.768Z,14.77
2023-05-03T10:35:07.434Z,15.32
2023-05-03T10:37:38.008Z,14.50
2023-05-03T10:40:10.236Z,14.30
2023-05-03T10:42:43.968Z,15.68
2023-05-03T10:45:21.649Z,15.88
2023-05-03T10:48:13.142Z,15.25
2023-05-03T10:50:40.642Z,15.70
2023-05-03T10:53:07.388Z,16.20
2023-05-03T10:55:34.328Z,15.93
2023-05-03T10:58:01.917Z,15.50
2023-05-03T11:00:43.986Z,15.18
2023-05-03T11:03:25.332Z,15.27
2023-05-03T11:05:52.262Z,14.75
2023-05-03T11:08:20.831Z,15.02
2023-05-03T11:10:56.806Z,16.20
2023-05-03T11:13:23.362Z,14.52
2023-05-03T11:15:50.029Z,14.60
2023-05-03T11:18:16.927Z,14.95
2023-05-03T11:20:44.092Z,15.38
2023-05-03T11:23:12.334Z,14.50
2023-05-03T11:25:39.251Z,15.30
2023-05-03T11:28:05.944Z,15.40
2023-05-03T11:30:37.323Z,14.63
2023-05-03T11:33:04.548Z,14.38
2023-05-03T11:35:31.896Z,14.93
2023-05-03T11:37:58.498Z,16.48
2023-05-03T11:40:26.095Z,16.17
2023-05-03T11:42:58.639Z,16.98
2023-05-03T11:45:52.312Z,15.40
2023-05-03T11:48:18.963Z,15.50
2023-05-03T11:50:48.328Z,15.80
2023-05-03T11:53:15.505Z,14.57
2023-05-03T11:55:48.025Z,15.05
2023-05-03T11:58:20.394Z,15.40
2023-05-03T12:00:48.556Z,14.60
2023-05-03T12:03:24.441Z,14.93
2023-05-03T12:05:54.644Z,15.13
2023-05-03T12:08:23.139Z,14.40
2023-05-03T12:13:56.970Z,16.05
2023-05-03T12:16:23.560Z,14.95
2023-05-03T12:18:56.519Z,14.55
2023-05-03T12:23:57.200Z,16.05
2023-05-03T12:26:26.443Z,15.07
2023-05-03T12:28:56.122Z,16.80
2023-05-03T12:34:11.372Z,15.68
2023-05-03T12:36:38.174Z,15.85
2023-05-03T12:39:09.443Z,15.25
2023-05-03T12:44:09.771Z,15.93
2023-05-03T12:46:38.692Z,16.70
2023-05-03T12:49:08.311Z,17.77
2023-05-03T12:51:35.615Z,15.93
2023-05-03T12:54:03.663Z,16.55
2023-05-03T12:56:32.585Z,16.02
2023-05-03T12:59:27.665Z,16.48
2023-05-03T13:03:08.265Z,16.52
2023-05-03T13:04:57.026Z,16.95
2023-05-03T13:07:28.236Z,16.73
2023-05-03T13:12:26.154Z,16.33
2023-05-03T13:14:53.887Z,17.25
2023-05-03T13:17:22.392Z,16.52
2023-05-03T13:19:50.945Z,16.52
2023-05-03T13:22:17.840Z,17.10
2023-05-03T13:24:46.965Z,16.25
2023-05-03T13:27:14.005Z,17.08
2023-05-03T13:29:40.866Z,17.27
2023-05-03T13:32:08.211Z,16.80
2023-05-03T13:34:35.453Z,16.73
2023-05-03T13:37:02.524Z,14.45
2023-05-03T13:39:29.058Z,14.88
2023-05-03T13:41:55.510Z,15.30
2023-05-03T13:44:25.423Z,15.70
2023-05-03T13:46:52.808Z,15.48
2023-05-03T13:49:19.770Z,16.13
2023-05-03T13:51:46.249Z,16.38
2023-05-03T13:54:12.663Z,15.68
2023-05-03T13:56:40.361Z,16.35
2023-05-03T13:59:08.887Z,15.77
2023-05-03T14:01:36.177Z,15.30
2023-05-03T14:04:03.947Z,16.80
2023-05-03T14:06:33.367Z,18.35
2023-05-03T14:09:01.608Z,17.42
2023-05-03T14:11:30.611Z,17.92
2023-05-03T14:13:58.446Z,16.85
2023-05-03T14:18:56.259Z,18.17
2023-05-03T14:21:22.754Z,18.13
2023-05-03T14:23:53.345Z,18.23
2023-05-03T14:26:21.921Z,18.48
2023-05-03T14:28:48.324Z,18.42
2023-05-03T14:31:14.910Z,16.08
2023-05-03T14:33:41.509Z,15.40
2023-05-03T14:36:09.137Z,16.15
2023-05-03T14:38:37.125Z,15.80
2023-05-03T14:41:03.687Z,15.43
2023-05-03T14:43:30.288Z,16.10
2023-05-03T14:45:56.696Z,16.08
2023-05-03T14:48:23.490Z,16.70
2023-05-03T14:50:50.731Z,16.60
2023-05-03T14:53:17.474Z,15.98
2023-05-03T14:55:44.208Z,16.98
2023-05-03T14:58:10.636Z,16.40
2023-05-03T15:00:38.957Z,16.15
2023-05-03T15:03:05.933Z,16.67
2023-05-03T15:05:32.502Z,16.63
2023-05-03T15:07:59.986Z,16.20
2023-05-03T15:10:26.424Z,17.10
2023-05-03T15:12:53.004Z,16.15
2023-05-03T15:15:19.420Z,16.50
2023-05-03T15:17:47.174Z,16.50
2023-05-03T15:20:15.293Z,16.55
2023-05-03T15:22:41.766Z,16.20
2023-05-03T15:25:08.688Z,17.02
2023-05-03T15:27:35.131Z,15.93
2023-05-03T15:30:01.849Z,16.73
2023-05-03T15:32:28.503Z,15.20
2023-05-03T15:34:55.279Z,18.48
2023-05-03T15:37:21.668Z,18.75
2023-05-03T15:39:48.054Z,17.55
2023-05-03T15:42:14.528Z,18.55
2023-05-03T15:44:40.982Z,17.52
2023-05-03T15:47:07.400Z,19.80
2023-05-03T15:49:33.799Z,14.52
2023-05-03T15:52:00.230Z,16.98
2023-05-03T15:54:26.632Z,18.42
2023-05-03T15:56:53.206Z,15.82
2023-05-03T15:59:19.688Z,14.80
2023-05-03T16:01:46.142Z,17.45
2023-05-03T16:04:12.631Z,14.25
2023-05-03T16:06:39.547Z,15.57
2023-05-03T16:09:07.048Z,17.05
2023-05-03T16:11:33.615Z,14.60
2023-05-03T16:14:00.013Z,14.63
2023-05-03T16:16:27.301Z,14.52
2023-05-03T16:18:53.881Z,14.88
2023-05-03T16:21:20.328Z,14.02
2023-05-03T16:23:46.882Z,13.05
2023-05-03T16:26:17.915Z,14.23
2023-05-03T16:28:44.450Z,14.30
2023-05-03T16:31:12.337Z,13.52
2023-05-03T16:33:38.892Z,12.90
2023-05-03T16:36:05.435Z,14.10
2023-05-03T16:38:32.128Z,14.20
2023-05-03T16:40:59.866Z,13.45
2023-05-03T16:43:26.632Z,13.43
2023-05-03T16:46:02.407Z,13.13
2023-05-03T16:48:31.983Z,14.93
2023-05-03T16:50:59.815Z,14.18
2023-05-03T16:53:26.212Z,16.77
2023-05-03T16:55:53.968Z,16.50
2023-05-03T16:58:20.802Z,13.77
2023-05-03T17:00:48.082Z,14.57
2023-05-03T17:03:14.760Z,14.98
2023-05-03T17:05:41.254Z,17.67
2023-05-03T17:08:10.924Z,14.75
2023-05-03T17:10:39.142Z,16.23
2023-05-03T17:13:06.341Z,14.80
2023-05-03T17:15:33.135Z,15.13
2023-05-03T17:18:01.951Z,14.35
2023-05-03T17:20:30.180Z,14.93
2023-05-03T17:22:56.728Z,14.90
2023-05-03T17:25:23.280Z,14.90
2023-05-03T17:27:51.721Z,14.90
2023-05-03T17:30:21.171Z,14.20
2023-05-03T17:32:48.578Z,15.10
2023-05-03T17:35:15.133Z,15.15
2023-05-03T17:37:41.647Z,15.70
2023-05-03T17:40:08.896Z,15.80
2023-05-03T17:42:35.764Z,15.52
2023-05-03T17:45:03.183Z,15.30
2023-05-03T17:47:29.789Z,18.38
2023-05-03T17:49:56.502Z,16.17
2023-05-03T17:52:23.552Z,15.15
2023-05-03T17:54:53.052Z,15.02
2023-05-03T17:57:22.493Z,15.73
2023-05-03T17:59:48.974Z,16.65
2023-05-03T18:02:15.408Z,15.80
2023-05-03T18:04:41.873Z,16.10
2023-05-03T18:07:08.505Z,14.90
2023-05-03T18:09:34.904Z,16.27
2023-05-03T18:12:03.476Z,14.98
2023-05-03T18:14:30.252Z,16.42
2023-05-03T18:16:57.155Z,15.57
2023-05-03T18:19:24.035Z,16.95
2023-05-03T18:21:50.519Z,15.38
2023-05-03T18:24:17.066Z,15.20
2023-05-03T18:26:43.622Z,16.30
2023-05-03T18:29:10.147Z,16.23
2023-05-03T18:31:36.746Z,15.75
2023-05-03T18:34:03.234Z,15.98
2023-05-03T18:36:29.761Z,15.52
2023-05-03T18:38:56.315Z,15.95
2023-05-03T18:41:23.051Z,15.82
2023-05-03T18:43:50.386Z,15.73
2023-05-03T18:46:18.634Z,17.67
2023-05-03T18:48:46.157Z,16.52
2023-05-03T18:51:12.610Z,16.88
2023-05-03T18:53:39.015Z,19.00
2023-05-03T18:56:05.760Z,17.20
2023-05-03T18:58:32.628Z,15.80
2023-05-03T19:01:00.187Z,14.73
2023-05-03T19:03:30.269Z,17.02
2023-05-03T19:06:09.850Z,13.90
2023-05-03T19:08:36.308Z,15.38
2023-05-03T19:11:14.117Z,17.10
2023-05-03T19:13:47.359Z,20.55
2023-05-03T19:16:15.497Z,17.02
2023-05-03T19:18:42.063Z,18.75
2023-05-03T19:21:08.841Z,18.85
2023-05-03T19:23:35.394Z,22.52
2023-05-03T19:26:01.843Z,18.15
2023-05-03T19:28:28.445Z,17.45
2023-05-03T19:30:55.070Z,17.85
2023-05-03T19:33:21.747Z,16.67
2023-05-03T19:35:48.123Z,16.98
2023-05-03T19:38:14.718Z,17.23
2023-05-03T19:40:41.333Z,20.60
2023-05-03T19:43:07.737Z,22.98
2023-05-03T19:45:34.339Z,17.25
2023-05-03T19:48:01.403Z,17.80
2023-05-03T19:50:27.840Z,17.40
2023-05-03T19:52:54.491Z,17.92
2023-05-03T19:55:21.069Z,17.40
2023-05-03T19:57:47.561Z,18.27
2023-05-03T20:00:15.681Z,16.50
2023-05-03T20:02:42.198Z,15.40
2023-05-03T20:05:08.793Z,18.23
2023-05-03T20:07:35.475Z,18.27
2023-05-03T20:10:02.262Z,19.10
2023-05-03T20:12:29.290Z,21.77
2023-05-03T20:14:55.734Z,16.63
2023-05-03T20:17:22.209Z,16.00
2023-05-03T20:19:52.019Z,22.30
2023-05-03T20:22:18.817Z,20.42
2023-05-03T20:24:45.185Z,19.00
2023-05-03T20:27:11.711Z,30.33
2023-05-03T20:29:38.135Z,24.52
2023-05-03T20:32:04.777Z,22.80
2023-05-03T20:34:31.199Z,21.38
2023-05-03T20:36:57.635Z,32.30
2023-05-03T20:39:24.095Z,25.35
2023-05-03T20:41:50.736Z,22.85
2023-05-03T20:44:17.159Z,30.60
2023-05-03T20:46:45.313Z,22.17
2023-05-03T20:49:11.982Z,21.27
2023-05-03T20:51:38.372Z,23.42
2023-05-03T20:54:04.833Z,25.25
2023-05-03T20:56:32.601Z,20.58
2023-05-03T20:58:59.020Z,20.95
2023-05-03T21:01:25.663Z,19.25
2023-05-03T21:03:52.135Z,21.27
2023-05-03T21:06:18.576Z,21.77
2023-05-03T21:08:44.979Z,18.42
2023-05-03T21:11:11.463Z,20.92
2023-05-03T21:13:38.466Z,20.40
2023-05-03T21:16:08.124Z,23.15
2023-05-03T21:18:34.727Z,20.73
2023-05-03T21:21:01.260Z,21.40
2023-05-03T21:23:27.730Z,19.77
2023-05-03T21:25:56.211Z,16.95
2023-05-03T21:28:23.080Z,17.80
2023-05-03T21:30:49.506Z,19.95
2023-05-03T21:33:16.302Z,17.00
2023-05-03T21:35:42.740Z,19.83
2023-05-03T21:38:09.596Z,18.00
2023-05-03T21:40:36.151Z,18.33
2023-05-03T21:43:04.268Z,21.48
2023-05-03T21:45:31.076Z,17.85
2023-05-03T21:47:57.550Z,19.55
2023-05-03T21:50:24.199Z,20.33
2023-05-03T21:52:50.615Z,17.98
2023-05-03T21:55:17.148Z,23.33
2023-05-03T21:57:43.522Z,18.23
2023-05-03T22:00:16.721Z,21.77
2023-05-03T22:02:43.312Z,19.48
2023-05-03T22:05:10.085Z,17.15
2023-05-03T22:07:36.523Z,20.30
2023-05-03T22:10:03.279Z,19.27
2023-05-03T22:12:29.916Z,19.08
2023-05-03T22:14:56.499Z,22.30
2023-05-03T22:17:22.988Z,20.98
2023-05-03T22:19:49.504Z,18.42
2023-05-03T22:22:16.076Z,21.65
2023-05-03T22:24:42.547Z,23.67
2023-05-03T22:27:08.976Z,23.73
2023-05-03T22:29:35.453Z,19.70
2023-05-03T22:32:02.841Z,20.08
2023-05-03T22:34:29.485Z,19.75
2023-05-03T22:36:56.038Z,19.65
2023-05-03T22:39:22.537Z,21.67
2023-05-03T22:41:48.992Z,19.92
2023-05-03T22:44:15.496Z,22.92
2023-05-03T22:46:41.888Z,20.20
2023-05-03T22:49:08.526Z,23.52
2023-05-03T22:51:34.923Z,24.52
2023-05-03T22:54:01.346Z,22.25
2023-05-03T22:56:27.765Z,25.70
2023-05-03T22:58:54.222Z,19.90
2023-05-03T23:01:20.711Z,25.50
2023-05-03T23:03:47.293Z,20.20
2023-05-03T23:06:14.533Z,21.98
2023-05-03T23:08:41.200Z,21.60
2023-05-03T23:11:08.141Z,25.65
2023-05-03T23:13:34.764Z,19.83
2023-05-03T23:16:01.755Z,20.15
2023-05-03T23:18:28.486Z,19.70
2023-05-03T23:20:55.313Z,23.42
2023-05-03T23:23:21.825Z,26.40
2023-05-03T23:25:48.210Z,20.95
2023-05-03T23:28:14.740Z,23.40
2023-05-03T23:30:43.689Z,23.52
2023-05-03T23:33:10.862Z,23.38
2023-05-03T23:35:38.315Z,24.23
2023-05-03T23:38:05.196Z,21.63
2023-05-03T23:40:31.791Z,23.65
2023-05-03T23:42:58.214Z,29.15
2023-05-03T23:45:24.726Z,24.20
2023-05-03T23:47:51.257Z,24.13
2023-05-03T23:50:17.788Z,21.05
2023-05-03T23:52:44.232Z,21.92
2023-05-03T23:55:11.113Z,24.27
2023-05-03T23:57:38.005Z,29.67
